sensor_id;sensor_type;location;lat;lon;timestamp;P1;durP1;ratioP1;P2;durP2;ratioP2
52029;SDS011;38043;53.224;6.580;2023-10-13T00:00:29;79.65;;;34.35;;
52029;SDS011;38043;53.224;6.580;2023-10-13T00:03:06;70.85;;;33.00;;
52029;SDS011;38043;53.224;6.580;2023-10-13T00:05:40;82.07;;;34.70;;
52029;SDS011;38043;53.224;6.580;2023-10-13T00:08:08;76.32;;;33.13;;
52029;SDS011;38043;53.224;6.580;2023-10-13T00:10:34;94.35;;;36.55;;
52029;SDS011;38043;53.224;6.580;2023-10-13T00:13:00;90.10;;;36.72;;
52029;SDS011;38043;53.224;6.580;2023-10-13T00:15:32;100.05;;;38.30;;
52029;SDS011;38043;53.224;6.580;2023-10-13T00:18:05;98.90;;;40.58;;
52029;SDS011;38043;53.224;6.580;2023-10-13T00:20:43;82.80;;;36.00;;
52029;SDS011;38043;53.224;6.580;2023-10-13T00:23:14;100.25;;;39.17;;
52029;SDS011;38043;53.224;6.580;2023-10-13T00:25:46;93.38;;;37.72;;
52029;SDS011;38043;53.224;6.580;2023-10-13T00:28:18;85.28;;;38.10;;
52029;SDS011;38043;53.224;6.580;2023-10-13T00:30:51;97.95;;;39.35;;
52029;SDS011;38043;53.224;6.580;2023-10-13T00:33:24;91.63;;;39.25;;
52029;SDS011;38043;53.224;6.580;2023-10-13T00:35:50;94.70;;;38.92;;
52029;SDS011;38043;53.224;6.580;2023-10-13T00:38:23;100.78;;;40.35;;
52029;SDS011;38043;53.224;6.580;2023-10-13T00:40:49;85.65;;;36.63;;
52029;SDS011;38043;53.224;6.580;2023-10-13T00:43:19;91.80;;;37.97;;
52029;SDS011;38043;53.224;6.580;2023-10-13T00:45:46;92.50;;;38.38;;
52029;SDS011;38043;53.224;6.580;2023-10-13T00:48:20;91.53;;;36.25;;
52029;SDS011;38043;53.224;6.580;2023-10-13T00:50:59;81.40;;;37.92;;
52029;SDS011;38043;53.224;6.580;2023-10-13T00:53:36;100.85;;;37.90;;
52029;SDS011;38043;53.224;6.580;2023-10-13T00:56:08;103.70;;;39.97;;
52029;SDS011;38043;53.224;6.580;2023-10-13T00:58:52;107.72;;;40.38;;
52029;SDS011;38043;53.224;6.580;2023-10-13T01:01:23;92.88;;;39.28;;
52029;SDS011;38043;53.224;6.580;2023-10-13T01:03:57;81.18;;;36.95;;
52029;SDS011;38043;53.224;6.580;2023-10-13T01:06:28;95.00;;;39.45;;
52029;SDS011;38043;53.224;6.580;2023-10-13T01:08:58;93.72;;;38.75;;
52029;SDS011;38043;53.224;6.580;2023-10-13T01:11:47;81.90;;;35.45;;
52029;SDS011;38043;53.224;6.580;2023-10-13T01:14:17;93.47;;;38.92;;
52029;SDS011;38043;53.224;6.580;2023-10-13T01:19:14;88.40;;;37.58;;
52029;SDS011;38043;53.224;6.580;2023-10-13T01:21:50;80.50;;;36.83;;
52029;SDS011;38043;53.224;6.580;2023-10-13T01:24:27;89.10;;;37.22;;
52029;SDS011;38043;53.224;6.580;2023-10-13T01:26:56;92.60;;;38.47;;
52029;SDS011;38043;53.224;6.580;2023-10-13T01:29:28;89.25;;;37.10;;
52029;SDS011;38043;53.224;6.580;2023-10-13T01:31:55;91.28;;;38.08;;
52029;SDS011;38043;53.224;6.580;2023-10-13T01:34:21;77.35;;;34.85;;
52029;SDS011;38043;53.224;6.580;2023-10-13T01:36:49;75.38;;;35.05;;
52029;SDS011;38043;53.224;6.580;2023-10-13T01:39:16;85.90;;;36.53;;
52029;SDS011;38043;53.224;6.580;2023-10-13T01:41:49;88.13;;;34.85;;
52029;SDS011;38043;53.224;6.580;2023-10-13T01:44:20;85.32;;;33.47;;
52029;SDS011;38043;53.224;6.580;2023-10-13T01:46:49;80.28;;;34.58;;
52029;SDS011;38043;53.224;6.580;2023-10-13T01:49:16;79.60;;;33.85;;
52029;SDS011;38043;53.224;6.580;2023-10-13T01:51:42;73.07;;;32.42;;
52029;SDS011;38043;53.224;6.580;2023-10-13T01:54:08;82.47;;;33.45;;
52029;SDS011;38043;53.224;6.580;2023-10-13T01:56:38;76.75;;;31.55;;
52029;SDS011;38043;53.224;6.580;2023-10-13T01:59:12;64.47;;;30.30;;
52029;SDS011;38043;53.224;6.580;2023-10-13T02:01:38;64.50;;;29.92;;
52029;SDS011;38043;53.224;6.580;2023-10-13T02:04:08;69.88;;;29.73;;
52029;SDS011;38043;53.224;6.580;2023-10-13T02:06:35;58.60;;;27.20;;
52029;SDS011;38043;53.224;6.580;2023-10-13T02:09:02;63.30;;;27.92;;
52029;SDS011;38043;53.224;6.580;2023-10-13T02:11:41;66.90;;;27.73;;
52029;SDS011;38043;53.224;6.580;2023-10-13T02:14:11;51.10;;;25.33;;
52029;SDS011;38043;53.224;6.580;2023-10-13T02:16:40;52.13;;;24.80;;
52029;SDS011;38043;53.224;6.580;2023-10-13T02:19:06;50.22;;;23.77;;
52029;SDS011;38043;53.224;6.580;2023-10-13T02:21:41;50.00;;;22.45;;
52029;SDS011;38043;53.224;6.580;2023-10-13T02:24:10;45.10;;;22.65;;
52029;SDS011;38043;53.224;6.580;2023-10-13T02:26:56;48.47;;;22.23;;
52029;SDS011;38043;53.224;6.580;2023-10-13T02:29:28;49.08;;;22.15;;
52029;SDS011;38043;53.224;6.580;2023-10-13T02:31:57;43.38;;;22.48;;
52029;SDS011;38043;53.224;6.580;2023-10-13T02:34:22;47.67;;;22.65;;
52029;SDS011;38043;53.224;6.580;2023-10-13T02:36:48;40.15;;;20.80;;
52029;SDS011;38043;53.224;6.580;2023-10-13T02:39:14;48.15;;;21.50;;
52029;SDS011;38043;53.224;6.580;2023-10-13T02:41:50;42.97;;;21.52;;
52029;SDS011;38043;53.224;6.580;2023-10-13T02:44:16;34.28;;;19.98;;
52029;SDS011;38043;53.224;6.580;2023-10-13T02:46:58;40.10;;;21.08;;
52029;SDS011;38043;53.224;6.580;2023-10-13T02:49:27;39.95;;;20.55;;
52029;SDS011;38043;53.224;6.580;2023-10-13T02:52:04;33.35;;;17.65;;
52029;SDS011;38043;53.224;6.580;2023-10-13T02:54:33;32.80;;;17.67;;
52029;SDS011;38043;53.224;6.580;2023-10-13T02:57:05;34.78;;;17.42;;
52029;SDS011;38043;53.224;6.580;2023-10-13T02:59:31;32.83;;;17.15;;
52029;SDS011;38043;53.224;6.580;2023-10-13T03:02:11;31.85;;;15.88;;
52029;SDS011;38043;53.224;6.580;2023-10-13T03:04:50;32.30;;;18.48;;
52029;SDS011;38043;53.224;6.580;2023-10-13T03:07:17;28.63;;;17.88;;
52029;SDS011;38043;53.224;6.580;2023-10-13T03:09:57;38.15;;;19.23;;
52029;SDS011;38043;53.224;6.580;2023-10-13T03:12:30;36.25;;;20.95;;
52029;SDS011;38043;53.224;6.580;2023-10-13T03:15:02;44.95;;;21.77;;
52029;SDS011;38043;53.224;6.580;2023-10-13T03:17:54;44.90;;;23.10;;
52029;SDS011;38043;53.224;6.580;2023-10-13T03:20:20;51.20;;;23.98;;
52029;SDS011;38043;53.224;6.580;2023-10-13T03:22:55;54.70;;;25.95;;
52029;SDS011;38043;53.224;6.580;2023-10-13T03:25:24;54.83;;;25.67;;
52029;SDS011;38043;53.224;6.580;2023-10-13T03:27:53;57.28;;;26.48;;
52029;SDS011;38043;53.224;6.580;2023-10-13T03:30:19;58.40;;;26.85;;
52029;SDS011;38043;53.224;6.580;2023-10-13T03:32:46;57.50;;;28.50;;
52029;SDS011;38043;53.224;6.580;2023-10-13T03:35:19;62.58;;;28.92;;
52029;SDS011;38043;53.224;6.580;2023-10-13T03:37:56;67.13;;;28.20;;
52029;SDS011;38043;53.224;6.580;2023-10-13T03:40:22;60.35;;;29.33;;
52029;SDS011;38043;53.224;6.580;2023-10-13T03:42:48;65.40;;;30.10;;
52029;SDS011;38043;53.224;6.580;2023-10-13T03:45:33;67.13;;;30.10;;
52029;SDS011;38043;53.224;6.580;2023-10-13T03:48:22;60.05;;;27.30;;
52029;SDS011;38043;53.224;6.580;2023-10-13T03:50:52;55.40;;;25.95;;
52029;SDS011;38043;53.224;6.580;2023-10-13T03:53:39;62.20;;;26.65;;
52029;SDS011;38043;53.224;6.580;2023-10-13T03:56:27;60.25;;;24.95;;
52029;SDS011;38043;53.224;6.580;2023-10-13T03:58:54;47.08;;;22.30;;
52029;SDS011;38043;53.224;6.580;2023-10-13T04:01:41;55.42;;;22.30;;
52029;SDS011;38043;53.224;6.580;2023-10-13T04:04:18;45.35;;;22.08;;
52029;SDS011;38043;53.224;6.580;2023-10-13T04:07:07;42.88;;;19.95;;
52029;SDS011;38043;53.224;6.580;2023-10-13T04:09:34;38.25;;;18.48;;
52029;SDS011;38043;53.224;6.580;2023-10-13T04:12:13;46.83;;;20.83;;
52029;SDS011;38043;53.224;6.580;2023-10-13T04:14:39;36.85;;;18.33;;
52029;SDS011;38043;53.224;6.580;2023-10-13T04:17:25;41.67;;;19.58;;
52029;SDS011;38043;53.224;6.580;2023-10-13T04:19:58;43.17;;;20.52;;
52029;SDS011;38043;53.224;6.580;2023-10-13T04:22:30;46.40;;;20.45;;
52029;SDS011;38043;53.224;6.580;2023-10-13T04:25:13;46.13;;;20.63;;
52029;SDS011;38043;53.224;6.580;2023-10-13T04:28:09;40.70;;;19.65;;
52029;SDS011;38043;53.224;6.580;2023-10-13T04:33:23;49.30;;;21.98;;
52029;SDS011;38043;53.224;6.580;2023-10-13T04:36:10;41.72;;;19.33;;
52029;SDS011;38043;53.224;6.580;2023-10-13T04:38:52;46.03;;;19.83;;
52029;SDS011;38043;53.224;6.580;2023-10-13T04:44:13;40.53;;;18.60;;
52029;SDS011;38043;53.224;6.580;2023-10-13T04:46:49;38.95;;;18.35;;
52029;SDS011;38043;53.224;6.580;2023-10-13T04:49:15;36.65;;;18.10;;
52029;SDS011;38043;53.224;6.580;2023-10-13T04:52:00;43.80;;;19.30;;
52029;SDS011;38043;53.224;6.580;2023-10-13T04:54:35;44.83;;;19.10;;
52029;SDS011;38043;53.224;6.580;2023-10-13T04:57:15;39.30;;;18.27;;
52029;SDS011;38043;53.224;6.580;2023-10-13T05:00:12;48.15;;;19.58;;
52029;SDS011;38043;53.224;6.580;2023-10-13T05:02:42;52.85;;;19.80;;
52029;SDS011;38043;53.224;6.580;2023-10-13T05:05:41;52.13;;;20.75;;
52029;SDS011;38043;53.224;6.580;2023-10-13T05:08:36;48.10;;;19.67;;
52029;SDS011;38043;53.224;6.580;2023-10-13T05:11:25;53.63;;;20.65;;
52029;SDS011;38043;53.224;6.580;2023-10-13T05:14:09;46.78;;;19.83;;
52029;SDS011;38043;53.224;6.580;2023-10-13T05:17:13;63.17;;;20.45;;
52029;SDS011;38043;53.224;6.580;2023-10-13T05:19:57;51.80;;;20.77;;
52029;SDS011;38043;53.224;6.580;2023-10-13T05:22:44;69.03;;;22.13;;
52029;SDS011;38043;53.224;6.580;2023-10-13T05:25:28;54.15;;;20.45;;
52029;SDS011;38043;53.224;6.580;2023-10-13T05:28:12;48.05;;;19.48;;
52029;SDS011;38043;53.224;6.580;2023-10-13T05:30:59;51.83;;;19.50;;
52029;SDS011;38043;53.224;6.580;2023-10-13T05:33:43;43.13;;;18.17;;
52029;SDS011;38043;53.224;6.580;2023-10-13T05:36:28;36.38;;;16.42;;
52029;SDS011;38043;53.224;6.580;2023-10-13T05:39:12;39.65;;;16.23;;
52029;SDS011;38043;53.224;6.580;2023-10-13T05:41:57;43.75;;;16.45;;
52029;SDS011;38043;53.224;6.580;2023-10-13T05:44:41;33.90;;;15.68;;
52029;SDS011;38043;53.224;6.580;2023-10-13T05:47:25;36.17;;;15.43;;
52029;SDS011;38043;53.224;6.580;2023-10-13T05:50:07;30.52;;;14.45;;
52029;SDS011;38043;53.224;6.580;2023-10-13T05:52:45;30.35;;;12.05;;
52029;SDS011;38043;53.224;6.580;2023-10-13T05:55:25;24.48;;;11.10;;
52029;SDS011;38043;53.224;6.580;2023-10-13T05:58:12;27.00;;;11.88;;
52029;SDS011;38043;53.224;6.580;2023-10-13T06:01:00;28.08;;;12.10;;
52029;SDS011;38043;53.224;6.580;2023-10-13T06:03:48;28.00;;;12.27;;
52029;SDS011;38043;53.224;6.580;2023-10-13T06:06:32;25.00;;;12.27;;
52029;SDS011;38043;53.224;6.580;2023-10-13T06:09:23;30.40;;;13.15;;
52029;SDS011;38043;53.224;6.580;2023-10-13T06:12:07;25.77;;;12.02;;
52029;SDS011;38043;53.224;6.580;2023-10-13T06:14:51;20.95;;;11.07;;
52029;SDS011;38043;53.224;6.580;2023-10-13T06:17:39;23.63;;;10.82;;
52029;SDS011;38043;53.224;6.580;2023-10-13T06:20:23;13.77;;;8.95;;
52029;SDS011;38043;53.224;6.580;2023-10-13T06:23:07;21.23;;;9.75;;
52029;SDS011;38043;53.224;6.580;2023-10-13T06:25:52;17.67;;;9.73;;
52029;SDS011;38043;53.224;6.580;2023-10-13T06:28:37;18.85;;;9.82;;
52029;SDS011;38043;53.224;6.580;2023-10-13T06:31:06;20.58;;;10.07;;
52029;SDS011;38043;53.224;6.580;2023-10-13T06:33:33;16.13;;;9.48;;
52029;SDS011;38043;53.224;6.580;2023-10-13T06:35:59;21.05;;;10.07;;
52029;SDS011;38043;53.224;6.580;2023-10-13T06:38:34;21.75;;;11.02;;
52029;SDS011;38043;53.224;6.580;2023-10-13T06:41:05;21.55;;;10.50;;
52029;SDS011;38043;53.224;6.580;2023-10-13T06:43:32;26.98;;;11.07;;
52029;SDS011;38043;53.224;6.580;2023-10-13T06:45:58;22.00;;;9.90;;
52029;SDS011;38043;53.224;6.580;2023-10-13T06:48:25;18.55;;;10.45;;
52029;SDS011;38043;53.224;6.580;2023-10-13T06:50:52;23.13;;;10.55;;
52029;SDS011;38043;53.224;6.580;2023-10-13T06:53:21;17.25;;;9.20;;
52029;SDS011;38043;53.224;6.580;2023-10-13T06:55:47;17.20;;;9.32;;
52029;SDS011;38043;53.224;6.580;2023-10-13T06:58:14;19.88;;;9.00;;
52029;SDS011;38043;53.224;6.580;2023-10-13T07:00:42;15.43;;;9.32;;
52029;SDS011;38043;53.224;6.580;2023-10-13T07:03:24;17.38;;;9.07;;
52029;SDS011;38043;53.224;6.580;2023-10-13T07:05:50;14.60;;;8.88;;
52029;SDS011;38043;53.224;6.580;2023-10-13T07:08:17;13.18;;;7.90;;
52029;SDS011;38043;53.224;6.580;2023-10-13T07:10:47;14.25;;;8.10;;
52029;SDS011;38043;53.224;6.580;2023-10-13T07:13:17;15.43;;;8.27;;
52029;SDS011;38043;53.224;6.580;2023-10-13T07:15:45;22.88;;;9.15;;
52029;SDS011;38043;53.224;6.580;2023-10-13T07:18:14;16.73;;;9.20;;
52029;SDS011;38043;53.224;6.580;2023-10-13T07:20:44;19.80;;;8.43;;
52029;SDS011;38043;53.224;6.580;2023-10-13T07:23:10;16.40;;;8.38;;
52029;SDS011;38043;53.224;6.580;2023-10-13T07:25:42;12.93;;;7.35;;
52029;SDS011;38043;53.224;6.580;2023-10-13T07:28:16;18.85;;;7.97;;
52029;SDS011;38043;53.224;6.580;2023-10-13T07:30:42;21.42;;;9.18;;
52029;SDS011;38043;53.224;6.580;2023-10-13T07:33:22;18.20;;;8.50;;
52029;SDS011;38043;53.224;6.580;2023-10-13T07:35:59;17.67;;;7.63;;
52029;SDS011;38043;53.224;6.580;2023-10-13T07:38:26;19.85;;;8.48;;
52029;SDS011;38043;53.224;6.580;2023-10-13T07:41:05;23.50;;;7.28;;
52029;SDS011;38043;53.224;6.580;2023-10-13T07:43:34;15.80;;;7.50;;
52029;SDS011;38043;53.224;6.580;2023-10-13T07:46:02;17.50;;;7.40;;
52029;SDS011;38043;53.224;6.580;2023-10-13T07:48:35;23.00;;;8.10;;
52029;SDS011;38043;53.224;6.580;2023-10-13T07:51:08;21.15;;;8.00;;
52029;SDS011;38043;53.224;6.580;2023-10-13T07:53:50;25.75;;;9.02;;
52029;SDS011;38043;53.224;6.580;2023-10-13T07:56:18;18.38;;;8.05;;
52029;SDS011;38043;53.224;6.580;2023-10-13T07:58:44;23.35;;;8.68;;
52029;SDS011;38043;53.224;6.580;2023-10-13T08:01:25;17.30;;;7.22;;
52029;SDS011;38043;53.224;6.580;2023-10-13T08:03:52;21.67;;;9.00;;
52029;SDS011;38043;53.224;6.580;2023-10-13T08:06:30;17.60;;;7.85;;
52029;SDS011;38043;53.224;6.580;2023-10-13T08:08:56;17.90;;;7.70;;
52029;SDS011;38043;53.224;6.580;2023-10-13T08:11:37;22.95;;;8.75;;
52029;SDS011;38043;53.224;6.580;2023-10-13T08:14:04;22.60;;;8.65;;
52029;SDS011;38043;53.224;6.580;2023-10-13T08:16:37;20.63;;;9.18;;
52029;SDS011;38043;53.224;6.580;2023-10-13T08:19:13;18.83;;;8.48;;
52029;SDS011;38043;53.224;6.580;2023-10-13T08:21:40;24.95;;;9.35;;
52029;SDS011;38043;53.224;6.580;2023-10-13T08:24:20;23.33;;;9.25;;
52029;SDS011;38043;53.224;6.580;2023-10-13T08:27:05;18.25;;;8.55;;
52029;SDS011;38043;53.224;6.580;2023-10-13T08:29:44;22.48;;;8.93;;
52029;SDS011;38043;53.224;6.580;2023-10-13T08:32:29;25.48;;;9.68;;
52029;SDS011;38043;53.224;6.580;2023-10-13T08:34:59;21.65;;;8.60;;
52029;SDS011;38043;53.224;6.580;2023-10-13T08:37:43;25.38;;;8.90;;
52029;SDS011;38043;53.224;6.580;2023-10-13T08:40:18;24.23;;;8.68;;
52029;SDS011;38043;53.224;6.580;2023-10-13T08:43:07;22.52;;;9.55;;
52029;SDS011;38043;53.224;6.580;2023-10-13T08:45:37;24.92;;;9.25;;
52029;SDS011;38043;53.224;6.580;2023-10-13T08:48:09;25.05;;;10.05;;
52029;SDS011;38043;53.224;6.580;2023-10-13T08:50:37;22.50;;;9.48;;
52029;SDS011;38043;53.224;6.580;2023-10-13T08:59:00;31.15;;;10.43;;
52029;SDS011;38043;53.224;6.580;2023-10-13T09:01:26;20.63;;;9.20;;
52029;SDS011;38043;53.224;6.580;2023-10-13T09:04:17;30.50;;;10.80;;
52029;SDS011;38043;53.224;6.580;2023-10-13T09:06:57;24.52;;;10.82;;
52029;SDS011;38043;53.224;6.580;2023-10-13T09:09:30;22.52;;;8.85;;
52029;SDS011;38043;53.224;6.580;2023-10-13T09:12:10;22.60;;;9.82;;
52029;SDS011;38043;53.224;6.580;2023-10-13T09:14:43;23.83;;;10.63;;
52029;SDS011;38043;53.224;6.580;2023-10-13T09:17:10;25.75;;;10.63;;
52029;SDS011;38043;53.224;6.580;2023-10-13T09:19:55;23.52;;;10.93;;
52029;SDS011;38043;53.224;6.580;2023-10-13T09:22:21;22.98;;;10.80;;
52029;SDS011;38043;53.224;6.580;2023-10-13T09:24:58;24.85;;;10.70;;
52029;SDS011;38043;53.224;6.580;2023-10-13T09:27:25;24.15;;;10.65;;
52029;SDS011;38043;53.224;6.580;2023-10-13T09:29:58;18.75;;;9.70;;
52029;SDS011;38043;53.224;6.580;2023-10-13T09:33:03;28.73;;;10.27;;
52029;SDS011;38043;53.224;6.580;2023-10-13T09:35:41;22.55;;;9.68;;
52029;SDS011;38043;53.224;6.580;2023-10-13T09:38:18;22.13;;;9.60;;
52029;SDS011;38043;53.224;6.580;2023-10-13T09:40:44;20.30;;;9.65;;
52029;SDS011;38043;53.224;6.580;2023-10-13T09:43:16;26.80;;;10.02;;
52029;SDS011;38043;53.224;6.580;2023-10-13T09:45:43;24.97;;;11.07;;
52029;SDS011;38043;53.224;6.580;2023-10-13T09:48:37;20.20;;;9.93;;
52029;SDS011;38043;53.224;6.580;2023-10-13T09:51:14;21.08;;;9.05;;
52029;SDS011;38043;53.224;6.580;2023-10-13T09:53:55;25.55;;;9.38;;
52029;SDS011;38043;53.224;6.580;2023-10-13T09:56:40;22.73;;;10.75;;
52029;SDS011;38043;53.224;6.580;2023-10-13T09:59:30;21.05;;;9.50;;
52029;SDS011;38043;53.224;6.580;2023-10-13T10:02:05;19.33;;;8.82;;
52029;SDS011;38043;53.224;6.580;2023-10-13T10:04:37;20.85;;;8.95;;
52029;SDS011;38043;53.224;6.580;2023-10-13T10:07:13;18.05;;;7.55;;
52029;SDS011;38043;53.224;6.580;2023-10-13T10:09:56;18.08;;;7.88;;
52029;SDS011;38043;53.224;6.580;2023-10-13T10:18:21;16.73;;;7.72;;
52029;SDS011;38043;53.224;6.580;2023-10-13T10:20:49;20.42;;;8.15;;
52029;SDS011;38043;53.224;6.580;2023-10-13T10:23:29;22.13;;;7.57;;
52029;SDS011;38043;53.224;6.580;2023-10-13T10:26:10;15.70;;;7.32;;
52029;SDS011;38043;53.224;6.580;2023-10-13T10:28:45;22.98;;;7.80;;
52029;SDS011;38043;53.224;6.580;2023-10-13T10:31:11;21.80;;;7.32;;
52029;SDS011;38043;53.224;6.580;2023-10-13T10:33:38;20.27;;;7.30;;
52029;SDS011;38043;53.224;6.580;2023-10-13T10:36:04;18.35;;;7.40;;
52029;SDS011;38043;53.224;6.580;2023-10-13T10:38:30;19.15;;;7.70;;
52029;SDS011;38043;53.224;6.580;2023-10-13T10:40:57;18.20;;;6.57;;
52029;SDS011;38043;53.224;6.580;2023-10-13T10:43:26;19.40;;;6.70;;
52029;SDS011;38043;53.224;6.580;2023-10-13T10:48:45;16.65;;;6.82;;
52029;SDS011;38043;53.224;6.580;2023-10-13T10:51:12;16.83;;;6.97;;
52029;SDS011;38043;53.224;6.580;2023-10-13T10:53:40;20.98;;;6.57;;
52029;SDS011;38043;53.224;6.580;2023-10-13T10:56:10;26.30;;;7.28;;
52029;SDS011;38043;53.224;6.580;2023-10-13T10:58:49;16.60;;;6.80;;
52029;SDS011;38043;53.224;6.580;2023-10-13T11:01:26;17.65;;;6.65;;
52029;SDS011;38043;53.224;6.580;2023-10-13T11:04:05;18.90;;;6.32;;
52029;SDS011;38043;53.224;6.580;2023-10-13T11:06:53;16.58;;;6.03;;
52029;SDS011;38043;53.224;6.580;2023-10-13T11:09:30;21.80;;;6.32;;
52029;SDS011;38043;53.224;6.580;2023-10-13T11:12:18;21.27;;;7.05;;
52029;SDS011;38043;53.224;6.580;2023-10-13T11:15:10;19.50;;;7.32;;
52029;SDS011;38043;53.224;6.580;2023-10-13T11:17:51;16.77;;;6.13;;
52029;SDS011;38043;53.224;6.580;2023-10-13T11:20:20;16.70;;;6.38;;
52029;SDS011;38043;53.224;6.580;2023-10-13T11:25:26;18.40;;;6.35;;
52029;SDS011;38043;53.224;6.580;2023-10-13T11:27:58;15.30;;;6.07;;
52029;SDS011;38043;53.224;6.580;2023-10-13T11:30:52;23.67;;;6.90;;
52029;SDS011;38043;53.224;6.580;2023-10-13T11:33:24;22.52;;;7.13;;
52029;SDS011;38043;53.224;6.580;2023-10-13T11:35:55;26.52;;;7.68;;
52029;SDS011;38043;53.224;6.580;2023-10-13T11:38:21;22.48;;;6.43;;
52029;SDS011;38043;53.224;6.580;2023-10-13T11:40:58;19.17;;;6.35;;
52029;SDS011;38043;53.224;6.580;2023-10-13T11:43:44;19.33;;;6.65;;
52029;SDS011;38043;53.224;6.580;2023-10-13T11:46:18;22.40;;;7.00;;
52029;SDS011;38043;53.224;6.580;2023-10-13T11:49:10;21.35;;;6.95;;
52029;SDS011;38043;53.224;6.580;2023-10-13T11:51:42;18.55;;;6.47;;
52029;SDS011;38043;53.224;6.580;2023-10-13T11:54:15;18.83;;;6.78;;
52029;SDS011;38043;53.224;6.580;2023-10-13T11:56:48;20.00;;;6.60;;
52029;SDS011;38043;53.224;6.580;2023-10-13T12:01:44;23.88;;;7.25;;
52029;SDS011;38043;53.224;6.580;2023-10-13T12:04:35;21.58;;;7.13;;
52029;SDS011;38043;53.224;6.580;2023-10-13T12:07:26;25.52;;;7.75;;
52029;SDS011;38043;53.224;6.580;2023-10-13T12:10:10;20.83;;;7.60;;
52029;SDS011;38043;53.224;6.580;2023-10-13T12:12:58;18.23;;;7.40;;
52029;SDS011;38043;53.224;6.580;2023-10-13T12:15:30;20.42;;;7.38;;
52029;SDS011;38043;53.224;6.580;2023-10-13T12:18:13;22.70;;;7.55;;
52029;SDS011;38043;53.224;6.580;2023-10-13T12:20:40;18.23;;;6.38;;
52029;SDS011;38043;53.224;6.580;2023-10-13T12:23:10;15.13;;;6.82;;
52029;SDS011;38043;53.224;6.580;2023-10-13T12:25:45;27.20;;;7.75;;
52029;SDS011;38043;53.224;6.580;2023-10-13T12:28:20;17.55;;;7.72;;
52029;SDS011;38043;53.224;6.580;2023-10-13T12:30:52;19.45;;;7.22;;
52029;SDS011;38043;53.224;6.580;2023-10-13T12:33:20;20.70;;;7.75;;
52029;SDS011;38043;53.224;6.580;2023-10-13T12:36:02;22.23;;;7.60;;
52029;SDS011;38043;53.224;6.580;2023-10-13T12:38:49;24.60;;;7.97;;
52029;SDS011;38043;53.224;6.580;2023-10-13T12:41:15;19.65;;;6.72;;
52029;SDS011;38043;53.224;6.580;2023-10-13T12:44:04;18.60;;;7.20;;
52029;SDS011;38043;53.224;6.580;2023-10-13T12:46:50;21.80;;;7.82;;
52029;SDS011;38043;53.224;6.580;2023-10-13T12:49:36;22.25;;;7.97;;
52029;SDS011;38043;53.224;6.580;2023-10-13T12:52:11;20.30;;;7.47;;
52029;SDS011;38043;53.224;6.580;2023-10-13T12:54:56;21.85;;;8.45;;
52029;SDS011;38043;53.224;6.580;2023-10-13T12:57:26;28.27;;;8.73;;
52029;SDS011;38043;53.224;6.580;2023-10-13T12:59:53;22.27;;;8.30;;
52029;SDS011;38043;53.224;6.580;2023-10-13T13:02:23;22.15;;;8.85;;
52029;SDS011;38043;53.224;6.580;2023-10-13T13:04:50;24.20;;;8.05;;
52029;SDS011;38043;53.224;6.580;2023-10-13T13:07:21;24.38;;;9.13;;
52029;SDS011;38043;53.224;6.580;2023-10-13T13:09:54;28.08;;;9.50;;
52029;SDS011;38043;53.224;6.580;2023-10-13T13:12:24;27.20;;;9.52;;
52029;SDS011;38043;53.224;6.580;2023-10-13T13:14:50;20.55;;;9.02;;
52029;SDS011;38043;53.224;6.580;2023-10-13T13:17:20;27.42;;;9.20;;
52029;SDS011;38043;53.224;6.580;2023-10-13T13:19:47;26.55;;;10.07;;
52029;SDS011;38043;53.224;6.580;2023-10-13T13:22:13;26.63;;;11.25;;
52029;SDS011;38043;53.224;6.580;2023-10-13T13:24:39;19.50;;;9.82;;
52029;SDS011;38043;53.224;6.580;2023-10-13T13:27:13;23.52;;;10.43;;
52029;SDS011;38043;53.224;6.580;2023-10-13T13:29:43;21.58;;;10.00;;
52029;SDS011;38043;53.224;6.580;2023-10-13T13:32:09;23.55;;;9.43;;
52029;SDS011;38043;53.224;6.580;2023-10-13T13:34:43;22.15;;;10.65;;
52029;SDS011;38043;53.224;6.580;2023-10-13T13:37:10;27.63;;;10.85;;
52029;SDS011;38043;53.224;6.580;2023-10-13T13:39:38;24.27;;;9.90;;
52029;SDS011;38043;53.224;6.580;2023-10-13T13:42:09;30.08;;;11.48;;
52029;SDS011;38043;53.224;6.580;2023-10-13T13:44:35;22.17;;;10.40;;
52029;SDS011;38043;53.224;6.580;2023-10-13T13:47:01;21.38;;;11.00;;
52029;SDS011;38043;53.224;6.580;2023-10-13T13:49:40;17.90;;;9.68;;
52029;SDS011;38043;53.224;6.580;2023-10-13T13:52:11;29.90;;;10.50;;
52029;SDS011;38043;53.224;6.580;2023-10-13T13:54:43;33.92;;;11.02;;
52029;SDS011;38043;53.224;6.580;2023-10-13T13:57:09;29.20;;;10.18;;
52029;SDS011;38043;53.224;6.580;2023-10-13T13:59:35;27.75;;;9.60;;
52029;SDS011;38043;53.224;6.580;2023-10-13T14:02:02;26.40;;;9.77;;
52029;SDS011;38043;53.224;6.580;2023-10-13T14:04:45;26.05;;;10.57;;
52029;SDS011;38043;53.224;6.580;2023-10-13T14:07:12;20.80;;;9.48;;
52029;SDS011;38043;53.224;6.580;2023-10-13T14:09:40;20.60;;;9.05;;
52029;SDS011;38043;53.224;6.580;2023-10-13T14:12:08;27.10;;;10.35;;
52029;SDS011;38043;53.224;6.580;2023-10-13T14:14:53;22.55;;;9.18;;
52029;SDS011;38043;53.224;6.580;2023-10-13T14:17:24;19.70;;;8.07;;
52029;SDS011;38043;53.224;6.580;2023-10-13T14:22:33;23.65;;;9.02;;
52029;SDS011;38043;53.224;6.580;2023-10-13T14:25:02;25.02;;;9.38;;
52029;SDS011;38043;53.224;6.580;2023-10-13T14:27:33;26.13;;;9.48;;
52029;SDS011;38043;53.224;6.580;2023-10-13T14:30:03;21.13;;;8.48;;
52029;SDS011;38043;53.224;6.580;2023-10-13T14:32:29;29.02;;;8.93;;
52029;SDS011;38043;53.224;6.580;2023-10-13T14:34:55;20.48;;;9.02;;
52029;SDS011;38043;53.224;6.580;2023-10-13T14:37:21;25.10;;;8.93;;
52029;SDS011;38043;53.224;6.580;2023-10-13T14:39:57;21.83;;;9.77;;
52029;SDS011;38043;53.224;6.580;2023-10-13T14:42:28;23.25;;;9.07;;
52029;SDS011;38043;53.224;6.580;2023-10-13T14:44:57;26.55;;;9.18;;
52029;SDS011;38043;53.224;6.580;2023-10-13T14:47:25;27.05;;;8.98;;
52029;SDS011;38043;53.224;6.580;2023-10-13T14:49:52;24.73;;;9.35;;
52029;SDS011;38043;53.224;6.580;2023-10-13T14:52:25;26.30;;;8.93;;
52029;SDS011;38043;53.224;6.580;2023-10-13T14:54:51;20.67;;;8.07;;
52029;SDS011;38043;53.224;6.580;2023-10-13T14:57:22;16.50;;;7.35;;
52029;SDS011;38043;53.224;6.580;2023-10-13T14:59:53;22.70;;;9.18;;
52029;SDS011;38043;53.224;6.580;2023-10-13T15:02:19;19.58;;;8.05;;
52029;SDS011;38043;53.224;6.580;2023-10-13T15:04:48;25.38;;;8.93;;
52029;SDS011;38043;53.224;6.580;2023-10-13T15:07:15;20.98;;;8.52;;
52029;SDS011;38043;53.224;6.580;2023-10-13T15:12:09;27.90;;;8.85;;
52029;SDS011;38043;53.224;6.580;2023-10-13T15:14:38;21.60;;;9.35;;
52029;SDS011;38043;53.224;6.580;2023-10-13T15:17:09;27.30;;;8.50;;
52029;SDS011;38043;53.224;6.580;2023-10-13T15:19:35;24.88;;;9.57;;
52029;SDS011;38043;53.224;6.580;2023-10-13T15:22:04;30.58;;;9.98;;
52029;SDS011;38043;53.224;6.580;2023-10-13T15:24:37;34.42;;;11.23;;
52029;SDS011;38043;53.224;6.580;2023-10-13T15:27:25;28.13;;;11.13;;
52029;SDS011;38043;53.224;6.580;2023-10-13T15:29:53;30.85;;;11.95;;
52029;SDS011;38043;53.224;6.580;2023-10-13T15:32:19;30.77;;;11.60;;
52029;SDS011;38043;53.224;6.580;2023-10-13T15:35:07;25.30;;;11.15;;
52029;SDS011;38043;53.224;6.580;2023-10-13T15:37:37;27.73;;;11.63;;
52029;SDS011;38043;53.224;6.580;2023-10-13T15:40:03;28.25;;;11.02;;
52029;SDS011;38043;53.224;6.580;2023-10-13T15:42:41;37.35;;;11.10;;